Jacksonville, MO (65260)

6:47 AM CDT on May 26, 2015 (GMT -0500)
At Moberly | | Change Station
CLOSE
Current Station
Personal Weather Station
Location: Moberly, MO
Elevation: 853 ft
Nearby Weather Stations

Elev 853 ft 39.46 °N, 92.40 °W | Updated 6 minutes ago

Overcast
Overcast
65.4 °F
Feels Like 65.4 °F
N
9.0
Wind Variable Wind from SSW
Gusts 16.0 mph

Today
High -- | Low -- °F
--% Chance of Precip.
Yesterday
High -- | Low -- °F
Precip. -- in
5:47 AM 8:26 PM
First Quarter, 57% visible
Pressure 29.77 in
Visibility 9.0 miles
Clouds Few 2500 ft
Mostly Cloudy 9500 ft
Overcast 11000 ft
Dew Point 63 °F
Humidity 91%
Rainfall 0.02 in
Snow Depth Not available.
UV 0 out of 12
Pollen 7.30 out of 12
Air Quality Not available.
Flu Activity Sporadic
METAR KIRK 261055Z AUTO 16014KT 9SM -RA FEW025 BKN095 OVC110 20/19 A2978 RMK AO2 SLP081 P0001 T02000189

More Conditions Fewer Conditions

Pressure 29.77 in
Visibility 9.0 miles
Clouds Few 2500 ft
Mostly Cloudy 9500 ft
Overcast 11000 ft
Dew Point 63 °F
Humidity 91%
Rainfall 0.02 in
Snow Depth Not available.
UV 0 out of 12
Pollen 7.30 out of 12
Air Quality Not available.
Flu Activity Sporadic
METAR KIRK 261055Z AUTO 16014KT 9SM -RA FEW025 BKN095 OVC110 20/19 A2978 RMK AO2 SLP081 P0001 T02000189

More Conditions Fewer Conditions

10-Day Weather Forecast

Almanac

Astronomy

May. 26, 2015 Rise Set
Actual Time
Civil Twilight
Nautical Twilight
Astronomical Twilight
Moon
Length of Visible Light
Length of Day
Tomorrow will be .
, % of the Moon is Illuminated

Today's Extremes

State Highs State Lows

Community

WunderPhotos

Upload Photos

1,824,304 photos uploaded!

WunderBlogs® & News

Nearby

Air Quality

  Air Quality AQ Index Pollutant
Not available.

Snow Depth

Station Depth Elevation

Earthquake Activity

City Distance Mag. Time & Date
Minimum magnitude displayed is 2.5.

Coastal Water Temperatures

Place Temperature

Stations

Nearby Weather Stations

Station Location Temp. Windchill Dew Point Humidity Wind Precip. Elev Updated Type